Latest Weather Observations for Lajamanu

IDD60801

Issued at 4:01 pm CST Saturday 25 February 2017 (issued every 30 minutes, with the page automatically refreshed every 10 minutes)

About weather observations | Map of weather stations | Latest weather observations for NT | Other Formats
Station Details ID: 014829 Name: LAJAMANU AIRPORT Lat: -18.33 Lon: 130.64 Height: 315.6 m
Data from the previous 72 hours. | See also: Recent months at Lajamanu
Date/Time
CST
Temp
°C
App
Temp
°C
Dew
Point
°C
Rel
Hum
%
Delta-T
°C
Wind Press
QNH
hPa
Press
MSL
hPa
Rain since
9am
mm
Dir  Spd
km/h
Gust
km/h
Spd
kts
Gust
kts
25/04:00pm 32.4 31.0 17.1 40 9.9 E 20 32 11 17 1009.5 1007.0 0.0
25/03:30pm 33.7 32.4 18.2 39 10.2 E 22 30 12 16 1009.8 1007.3 0.0
25/03:00pm 34.9 33.7 18.5 38 10.9 E 22 35 12 19 1010.2 1007.7 0.0
25/02:30pm 32.6 32.0 18.4 43 9.3 E 19 39 10 21 1010.8 1008.3 0.0
25/02:00pm 32.1 31.4 18.3 44 9.0 E 19 28 10 15 1011.2 1008.7 0.0
25/01:30pm 33.8 34.0 20.6 46 8.9 E 20 32 11 17 1011.8 1009.4 0.0
25/01:00pm 33.2 33.6 20.7 47 8.5 E 19 30 10 16 1012.4 1010.0 0.0
25/12:30pm 33.0 33.0 20.2 47 8.6 ENE 20 32 11 17 1012.9 1010.4 0.0
25/12:00pm 32.2 32.5 20.5 50 7.9 ENE 19 33 10 18 1013.4 1010.9 0.0
25/11:30am 31.7 31.0 20.3 50 7.7 ENE 24 35 13 19 1014.0 1011.5 0.0
25/11:00am 30.8 31.9 21.3 57 6.4 E 17 32 9 17 1014.5 1012.1 0.0
25/10:30am 29.2 29.7 20.9 61 5.6 ESE 19 26 10 14 1015.1 1012.7 0.0
25/10:00am 27.2 27.7 20.8 68 4.3 E 19 26 10 14 1015.2 1012.8 0.0
25/09:30am 28.4 28.8 21.7 67 4.5 E 22 35 12 19 1015.1 1012.7 0.0
25/09:00am 27.2 27.3 21.2 69 4.0 E 22 32 12 17 1015.0 1012.6 1.2
25/08:30am 26.3 27.0 21.5 75 3.2 ESE 20 26 11 14 1014.7 1012.3 1.2
25/08:00am 24.3 25.3 21.0 82 2.2 ESE 17 24 9 13 1014.3 1011.9 1.2
25/07:30am 23.8 24.9 21.3 86 1.7 ESE 17 20 9 11 1013.9 1011.4 1.2
25/07:00am 22.8 24.5 20.9 89 1.3 SE 13 17 7 9 1013.7 1011.2 1.2
25/06:30am 22.8 25.0 20.5 87 1.5 SE 9 11 5 6 1013.8 1011.3 1.2
25/06:00am 23.1 25.0 20.6 86 1.6 ESE 11 15 6 8 1013.6 1011.1 1.2
25/05:30am 23.4 25.8 20.9 86 1.7 ESE 9 15 5 8 1013.6 1011.1 1.2
25/05:00am 23.3 24.6 20.8 86 1.7 ESE 15 20 8 11 1013.3 1010.8 1.2
25/04:30am 23.3 23.7 20.6 85 1.8 ESE 19 24 10 13 1013.3 1010.8 1.2
25/04:00am 23.4 23.7 20.5 84 1.9 SE 19 24 10 13 1013.2 1010.7 1.2
25/03:30am 23.8 24.0 20.5 82 2.2 ESE 20 26 11 14 1013.1 1010.6 1.2
25/03:00am 24.3 23.7 20.4 79 2.6 SE 24 37 13 20 1013.0 1010.5 1.2
25/02:30am 24.8 26.2 21.9 84 2.0 SE 17 28 9 15 1013.2 1010.7 1.2
25/02:00am 24.9 25.8 22.0 84 2.0 SE 20 28 11 15 1013.4 1010.9 1.2
25/01:30am 24.8 26.5 22.3 86 1.7 SE 17 24 9 13 1013.6 1011.1 1.2
25/01:00am 24.7 27.6 22.4 87 1.6 SE 11 11 6 6 1013.6 1011.1 1.2
25/12:30am 25.0 28.7 22.5 86 1.7 ESE 7 11 4 6 1013.4 1010.9 1.2
25/12:00am 25.2 28.5 22.5 85 1.8 ESE 9 11 5 6 1013.8 1011.3 1.2
 
Date/Time
CST
Temp
°C
App
Temp
°C
Dew
Point
°C
Rel
Hum
%
Delta-T
°C
Wind Press
QNH
hPa
Press
MSL
hPa
Rain since
9am
mm
Dir  Spd
km/h
Gust
km/h
Spd
kts
Gust
kts
24/11:30pm 25.4 28.7 22.5 84 2.0 ESE 9 13 5 7 1014.3 1011.9 1.2
24/11:00pm 25.6 28.5 22.5 83 2.1 ESE 11 15 6 8 1014.2 1011.8 1.2
24/10:30pm 25.9 28.5 22.6 82 2.3 ESE 13 17 7 9 1014.1 1011.7 1.2
24/10:00pm 26.3 28.8 21.7 76 3.1 SE 11 15 6 8 1014.1 1011.7 1.2
24/09:30pm 26.4 28.5 20.9 72 3.7 ESE 11 17 6 9 1013.3 1010.8 1.2
24/09:00pm 27.0 29.1 21.7 73 3.6 ESE 13 17 7 9 1013.2 1010.7 1.2
24/08:30pm 27.5 29.3 21.8 71 3.9 E 15 20 8 11 1013.2 1010.7 1.2
24/08:00pm 27.9 29.3 21.0 66 4.6 E 15 19 8 10 1012.3 1009.9 1.2
24/07:30pm 28.5 30.4 20.5 62 5.3 ENE 11 17 6 9 1012.0 1009.6 1.2
24/07:00pm 29.3 30.4 21.3 62 5.4 E 17 22 9 12 1011.5 1009.1 1.2
24/06:30pm 29.4 30.7 20.8 60 5.8 ESE 15 24 8 13 1011.0 1008.5 1.2
24/06:00pm 30.4 30.9 20.9 57 6.4 ENE 19 26 10 14 1010.8 1008.3 1.2
24/05:30pm 30.0 31.0 21.1 59 6.0 E 17 26 9 14 1010.8 1008.3 1.2
24/05:00pm 29.8 29.2 19.8 55 6.6 ENE 22 32 12 17 1010.9 1008.4 1.2
24/04:30pm 31.1 32.2 21.9 58 6.3 E 19 32 10 17 1011.1 1008.6 1.2
24/04:00pm 30.4 31.1 21.5 59 6.0 ENE 20 30 11 16 1011.1 1008.6 1.2
24/03:30pm 30.2 31.0 21.8 60 5.7 E 20 33 11 18 1011.2 1008.7 1.2
24/03:00pm 29.6 30.9 22.3 65 5.0 E 19 26 10 14 1012.1 1009.7 1.2
24/02:30pm 26.0 26.0 21.7 77 2.9 ESE 24 35 13 19 1012.8 1010.3 1.2
24/02:00pm 27.3 25.4 20.1 64 4.8 E 30 52 16 28 1012.4 1010.0 1.2
24/01:58pm 28.9 28.1 21.7 65 4.9 ESE 28 50 15 27 1012.3 1009.9 1.2
24/01:30pm 31.2 29.8 21.9 57 6.4 E 32 46 17 25 1012.3 1009.9 1.2
24/01:25pm 31.3 29.8 20.3 52 7.4 E 28 46 15 25 1012.2 1009.8 1.2
24/01:00pm 31.1 30.6 22.1 58 6.2 ENE 28 41 15 22 1012.9 1010.4 1.2
24/12:30pm 29.4 30.4 22.9 68 4.5 E 22 32 12 17 1013.5 1011.0 1.2
24/12:00pm 29.4 29.9 22.6 67 4.7 E 24 39 13 21 1013.8 1011.3 1.2
24/11:30am 29.3 29.8 23.3 70 4.2 E 26 35 14 19 1014.2 1011.8 1.0
24/11:00am 28.3 28.5 22.8 72 3.8 ESE 26 39 14 21 1014.2 1011.8 1.0
24/10:30am 26.9 25.8 22.5 77 3.0 SE 32 50 17 27 1014.2 1011.8 1.0
24/10:21am 26.9 26.4 22.1 75 3.3 SE 28 50 15 27 1014.3 1011.9 1.0
24/10:00am 25.7 27.4 23.4 87 1.6 SE 20 28 11 15 1014.5 1012.1 1.0
24/09:30am 26.6 26.9 21.6 74 3.4 SE 22 33 12 18 1014.6 1012.2 0.0
24/09:00am 27.2 27.1 20.8 68 4.3 SE 22 32 12 17 1014.3 1011.9 0.0
24/08:30am 27.3 27.3 20.9 68 4.3 SE 22 32 12 17 1014.0 1011.5 0.0
24/08:00am 26.9 26.7 20.5 68 4.3 SE 22 33 12 18 1013.9 1011.4 0.0
24/07:30am 26.9 28.0 20.5 68 4.3 SE 15 20 8 11 1013.5 1011.0 0.0
24/07:00am 26.7 28.1 20.3 68 4.2 SE 13 19 7 10 1013.1 1010.6 0.0
24/06:30am 26.9 28.3 20.3 67 4.4 SE 13 20 7 11 1012.9 1010.4 0.0
24/06:00am 26.7 28.5 20.3 68 4.2 SE 11 15 6 8 1012.5 1010.1 0.0
24/05:30am 26.9 28.8 19.8 65 4.7 SE 9 13 5 7 1012.2 1009.8 0.0
24/05:00am 27.5 28.6 19.6 62 5.2 ESE 13 17 7 9 1012.1 1009.7 0.0
24/04:30am 27.6 28.7 19.7 62 5.2 SE 13 20 7 11 1011.7 1009.3 0.0
24/04:00am 27.5 29.4 19.8 63 5.1 SE 9 11 5 6 1011.6 1009.2 0.0
24/03:30am 27.1 29.7 20.0 65 4.7 SE 6 9 3 5 1011.4 1009.0 0.0
24/03:00am 27.3 29.8 19.1 61 5.4 ENE 4 6 2 3 1011.1 1008.6 0.0
24/02:30am 27.7 29.6 19.0 59 5.7 E 7 11 4 6 1011.5 1009.1 0.0
24/02:00am 27.9 29.4 18.9 58 5.9 E 9 13 5 7 1011.8 1009.4 0.0
24/01:30am 27.9 28.6 18.9 58 5.9 E 13 20 7 11 1012.0 1009.6 0.0
24/01:00am 26.9 29.1 19.5 64 4.8 ESE 7 9 4 5 1012.0 1009.6 0.0
24/12:30am 26.8 28.2 18.6 60 5.3 ESE 9 9 5 5 1011.8 1009.4 0.0
24/12:00am 27.3 29.0 18.6 59 5.6 E 7 9 4 5 1011.8 1009.4 0.0
 
Date/Time
CST
Temp
°C
App
Temp
°C
Dew
Point
°C
Rel
Hum
%
Delta-T
°C
Wind Press
QNH
hPa
Press
MSL
hPa
Rain since
9am
mm
Dir  Spd
km/h
Gust
km/h
Spd
kts
Gust
kts
23/11:30pm 27.6 29.2 18.3 57 6.0 E 7 9 4 5 1012.1 1009.7 0.0
23/11:00pm 28.1 29.2 17.9 54 6.6 E 9 11 5 6 1012.1 1009.7 0.0
23/10:30pm 28.2 29.2 17.7 53 6.7 E 9 11 5 6 1011.9 1009.5 0.0
23/10:00pm 28.7 29.6 17.6 51 7.1 E 9 11 5 6 1011.8 1009.4 0.0
23/09:30pm 29.3 30.1 17.2 48 7.7 E 9 11 5 6 1011.5 1009.1 0.0
23/09:00pm 29.9 30.5 16.7 45 8.4 E 9 11 5 6 1011.1 1008.6 0.0
23/08:30pm 30.8 30.9 15.6 39 9.5 E 9 13 5 7 1010.6 1008.1 0.0
23/08:00pm 31.9 31.1 14.1 34 11.0 ESE 11 15 6 8 1010.3 1007.8 0.0
23/07:30pm 33.2 32.7 13.8 31 12.0 SE 9 13 5 7 1009.8 1007.3 0.0
23/07:00pm 34.9 33.4 13.1 27 13.4 SE 13 22 7 12 1009.3 1006.9 0.0
23/06:30pm 35.5 32.5 12.5 25 14.0 SE 20 28 11 15 1009.1 1006.7 0.0
23/06:00pm 36.2 33.3 12.4 24 14.5 SE 19 26 10 14 1008.8 1006.4 0.0
23/05:30pm 37.0 33.8 11.8 22 15.3 SE 20 35 11 19 1008.6 1006.2 0.0
23/05:00pm 37.4 33.7 12.8 23 15.2 ESE 24 35 13 19 1008.7 1006.3 0.0
23/04:30pm 37.9 35.1 13.2 23 15.4 SE 20 30 11 16 1008.7 1006.3 0.0
23/04:00pm 37.4 33.5 12.1 22 15.4 ESE 24 33 13 18 1009.0 1006.6 0.0
23/03:30pm 38.1 34.3 11.2 20 16.3 SE 22 33 12 18 1009.2 1006.8 0.0
23/03:00pm 38.0 33.6 10.4 19 16.5 SE 24 35 13 19 1009.7 1007.2 0.0
23/02:30pm 37.8 33.1 9.4 18 16.7 ESE 24 35 13 19 1009.9 1007.4 0.0
23/02:00pm 37.8 33.1 9.4 18 16.7 SE 24 37 13 20 1010.2 1007.7 0.0
23/01:30pm 37.7 32.0 6.6 15 17.5 ESE 26 37 14 20 1010.6 1008.1 0.0
23/01:00pm 37.7 33.0 7.6 16 17.2 ESE 22 30 12 16 1010.9 1008.4 0.0
23/12:30pm 36.8 33.5 9.4 19 16.0 SSE 17 26 9 14 1011.4 1009.0 0.0
23/12:00pm 35.7 33.5 9.3 20 15.4 SE 11 19 6 10 1011.8 1009.4 0.0
23/11:30am 35.0 32.6 10.1 22 14.6 SE 13 17 7 9 1012.1 1009.7 0.0
23/11:00am 34.1 32.0 11.3 25 13.6 SE 13 17 7 9 1012.3 1009.9 0.0
23/10:30am 33.1 31.3 12.1 27 12.6 SE 13 19 7 10 1012.3 1009.9 0.0
23/10:00am 31.6 30.2 13.4 33 11.1 SE 13 17 7 9 1012.6 1010.2 0.0
23/09:30am 29.9 30.0 14.4 38 9.5 SSE 7 9 4 5 1012.6 1010.2 0.0
23/09:00am 27.9 27.8 13.4 40 8.7 S 6 7 3 4 1012.6 1010.2 0.0
23/08:30am 26.0 26.1 12.8 44 7.8 S 4 7 2 4 1012.3 1009.9 0.0
23/08:00am 23.2 24.5 14.2 57 5.4 CALM 0 0 0 0 1012.0 1009.6 0.0
23/07:30am 20.2 21.0 15.8 76 2.7 WNW 6 7 3 4 1011.7 1009.3 0.0
23/07:00am 18.9 19.1 14.8 77 2.4 NW 7 9 4 5 1011.4 1009.0 0.0
23/06:30am 17.4 17.9 14.1 81 1.9 W 4 6 2 3 1010.9 1008.4 0.0
23/06:00am 18.0 18.1 14.5 80 2.1 WNW 7 9 4 5 1010.7 1008.2 0.0
23/05:30am 18.5 18.8 14.6 78 2.3 NNW 6 7 3 4 1010.5 1008.0 0.0
23/05:00am 19.7 19.4 14.3 71 3.2 N 9 9 5 5 1010.1 1007.6 0.0
23/04:30am 20.6 20.6 14.3 67 3.7 NW 7 9 4 5 1010.0 1007.5 0.0
23/04:00am 19.3 19.1 13.5 69 3.4 SSW 7 9 4 5 1010.1 1007.6 0.0
23/03:30am 19.9 20.8 14.0 69 3.5 SW 2 6 1 3 1010.1 1007.6 0.0
23/03:00am 20.3 20.4 14.0 67 3.7 WNW 6 7 3 4 1010.2 1007.7 0.0
23/02:30am 21.3 21.5 14.7 66 3.9 WNW 7 9 4 5 1010.4 1007.9 0.0
23/02:00am 20.9 20.7 13.6 63 4.3 NW 7 9 4 5 1010.5 1008.0 0.0
23/01:30am 23.2 23.0 13.7 55 5.6 NW 7 9 4 5 1010.9 1008.4 0.0
23/01:00am 22.7 22.4 12.6 53 5.8 NW 6 9 3 5 1011.0 1008.5 0.0
23/12:30am 23.3 23.2 13.8 55 5.6 WNW 7 9 4 5 1011.3 1008.9 0.0
23/12:00am 22.9 22.8 13.4 55 5.6 WNW 6 7 3 4 1011.5 1009.1 0.0
 
Date/Time
CST
Temp
°C
App
Temp
°C
Dew
Point
°C
Rel
Hum
%
Delta-T
°C
Wind Press
QNH
hPa
Press
MSL
hPa
Rain since
9am
mm
Dir  Spd
km/h
Gust
km/h
Spd
kts
Gust
kts
22/11:30pm 22.8 22.8 14.1 58 5.2 WNW 7 7 4 4 1011.6 1009.2 0.0
22/11:00pm 22.2 22.0 13.0 56 5.3 W 6 7 3 4 1011.8 1009.4 0.0
22/10:30pm 22.7 22.9 13.2 55 5.6 W 4 6 2 3 1012.0 1009.6 0.0
22/10:00pm 22.9 22.6 12.8 53 5.9 WNW 6 9 3 5 1011.7 1009.3 0.0
22/09:30pm 24.7 24.8 14.5 53 6.1 WNW 7 7 4 4 1011.3 1008.9 0.0
22/09:00pm 24.7 25.3 12.0 45 7.3 CALM 0 0 0 0 1010.9 1008.4 0.0
22/08:30pm 27.3 25.7 8.7 31 10.3 E 7 9 4 5 1010.7 1008.2 0.0
22/08:00pm 28.1 26.0 8.4 29 10.9 E 9 11 5 6 1010.3 1007.8 0.0
22/07:30pm 28.2 26.6 8.0 28 11.1 SE 6 7 3 4 1010.0 1007.5 0.0
22/07:00pm 33.2 30.8 7.2 20 14.5 SE 9 11 5 6 1009.8 1007.3 0.0
22/06:30pm 35.0 31.7 6.3 17 15.9 SSE 13 19 7 10 1009.6 1007.1 0.0
22/06:00pm 35.9 32.2 4.2 14 17.1 SSE 13 19 7 10 1009.5 1007.0 0.0
22/05:30pm 36.6 33.7 4.8 14 17.4 SSE 9 15 5 8 1009.3 1006.9 0.0
22/05:00pm 37.1 33.1 3.0 12 18.1 SE 13 19 7 10 1009.3 1006.9 0.0
22/04:30pm 36.8 33.0 3.9 13 17.7 SE 13 19 7 10 1009.3 1006.9 0.0

Other Formats:

Comma delimited format used in spreadsheet applications
http://www.bom.gov.au/fwo/IDD60801/IDD60801.94231.axf

JavaScript Object Notation format (JSON) in row-major order
http://www.bom.gov.au/fwo/IDD60801/IDD60801.94231.json